sensor_id;sensor_type;location;lat;lon;timestamp;P1;durP1;ratioP1;P2;durP2;ratioP2
8488;SDS011;4281;45.772;12.852;2024-03-08T00:00:15;7.03;;;6.33;;
8488;SDS011;4281;45.772;12.852;2024-03-08T00:02:45;6.80;;;6.20;;
8488;SDS011;4281;45.772;12.852;2024-03-08T00:05:14;7.27;;;6.57;;
8488;SDS011;4281;45.772;12.852;2024-03-08T00:07:42;6.20;;;5.60;;
8488;SDS011;4281;45.772;12.852;2024-03-08T00:10:11;7.00;;;6.30;;
8488;SDS011;4281;45.772;12.852;2024-03-08T00:12:42;7.03;;;6.33;;
8488;SDS011;4281;45.772;12.852;2024-03-08T00:15:11;7.67;;;6.97;;
8488;SDS011;4281;45.772;12.852;2024-03-08T00:17:44;7.13;;;6.43;;
8488;SDS011;4281;45.772;12.852;2024-03-08T00:20:14;7.00;;;6.40;;
8488;SDS011;4281;45.772;12.852;2024-03-08T00:22:45;7.73;;;6.93;;
8488;SDS011;4281;45.772;12.852;2024-03-08T00:25:14;6.70;;;6.10;;
8488;SDS011;4281;45.772;12.852;2024-03-08T00:27:42;7.13;;;6.43;;
8488;SDS011;4281;45.772;12.852;2024-03-08T00:30:11;6.50;;;5.90;;
8488;SDS011;4281;45.772;12.852;2024-03-08T00:32:41;6.03;;;5.47;;
8488;SDS011;4281;45.772;12.852;2024-03-08T00:35:10;6.87;;;6.17;;
8488;SDS011;4281;45.772;12.852;2024-03-08T00:37:39;6.67;;;6.07;;
8488;SDS011;4281;45.772;12.852;2024-03-08T00:40:08;5.90;;;5.37;;
8488;SDS011;4281;45.772;12.852;2024-03-08T00:42:37;7.50;;;6.80;;
8488;SDS011;4281;45.772;12.852;2024-03-08T00:45:06;6.67;;;6.07;;
8488;SDS011;4281;45.772;12.852;2024-03-08T00:47:37;6.00;;;5.50;;
8488;SDS011;4281;45.772;12.852;2024-03-08T00:50:06;6.10;;;5.60;;
8488;SDS011;4281;45.772;12.852;2024-03-08T00:52:36;5.93;;;5.33;;
8488;SDS011;4281;45.772;12.852;2024-03-08T00:55:04;6.00;;;5.40;;
8488;SDS011;4281;45.772;12.852;2024-03-08T00:57:34;5.23;;;4.67;;
8488;SDS011;4281;45.772;12.852;2024-03-08T01:00:03;5.20;;;4.70;;
8488;SDS011;4281;45.772;12.852;2024-03-08T01:02:36;4.47;;;4.07;;
8488;SDS011;4281;45.772;12.852;2024-03-08T01:05:04;4.07;;;3.67;;
8488;SDS011;4281;45.772;12.852;2024-03-08T01:07:33;3.90;;;3.50;;
8488;SDS011;4281;45.772;12.852;2024-03-08T01:10:04;3.83;;;3.20;;
8488;SDS011;4281;45.772;12.852;2024-03-08T01:12:36;2.90;;;2.60;;
8488;SDS011;4281;45.772;12.852;2024-03-08T01:15:04;2.97;;;2.60;;
8488;SDS011;4281;45.772;12.852;2024-03-08T01:17:33;2.40;;;2.20;;
8488;SDS011;4281;45.772;12.852;2024-03-08T01:20:01;2.30;;;2.10;;
8488;SDS011;4281;45.772;12.852;2024-03-08T01:22:30;2.10;;;1.90;;
8488;SDS011;4281;45.772;12.852;2024-03-08T01:24:58;2.10;;;1.90;;
8488;SDS011;4281;45.772;12.852;2024-03-08T01:27:27;1.60;;;1.50;;
8488;SDS011;4281;45.772;12.852;2024-03-08T01:29:56;1.70;;;1.60;;
8488;SDS011;4281;45.772;12.852;2024-03-08T01:32:24;1.70;;;1.60;;
8488;SDS011;4281;45.772;12.852;2024-03-08T01:34:53;1.67;;;1.57;;
8488;SDS011;4281;45.772;12.852;2024-03-08T01:37:21;1.67;;;1.47;;
8488;SDS011;4281;45.772;12.852;2024-03-08T01:39:49;1.70;;;1.60;;
8488;SDS011;4281;45.772;12.852;2024-03-08T01:42:17;1.77;;;1.50;;
8488;SDS011;4281;45.772;12.852;2024-03-08T01:44:46;2.67;;;1.60;;
8488;SDS011;4281;45.772;12.852;2024-03-08T01:47:14;1.67;;;1.57;;
8488;SDS011;4281;45.772;12.852;2024-03-08T01:49:43;1.40;;;1.30;;
8488;SDS011;4281;45.772;12.852;2024-03-08T01:52:11;1.30;;;1.20;;
8488;SDS011;4281;45.772;12.852;2024-03-08T01:54:39;1.70;;;1.60;;
8488;SDS011;4281;45.772;12.852;2024-03-08T01:57:08;1.70;;;1.60;;
8488;SDS011;4281;45.772;12.852;2024-03-08T01:59:36;1.60;;;1.50;;
8488;SDS011;4281;45.772;12.852;2024-03-08T02:02:06;1.53;;;1.43;;
8488;SDS011;4281;45.772;12.852;2024-03-08T02:04:35;1.30;;;1.20;;
8488;SDS011;4281;45.772;12.852;2024-03-08T02:07:04;1.23;;;1.13;;
8488;SDS011;4281;45.772;12.852;2024-03-08T02:09:36;1.73;;;1.63;;
8488;SDS011;4281;45.772;12.852;2024-03-08T02:12:04;1.30;;;1.20;;
8488;SDS011;4281;45.772;12.852;2024-03-08T02:14:33;1.20;;;1.10;;
8488;SDS011;4281;45.772;12.852;2024-03-08T02:17:01;1.20;;;1.10;;
8488;SDS011;4281;45.772;12.852;2024-03-08T02:19:30;1.50;;;1.40;;
8488;SDS011;4281;45.772;12.852;2024-03-08T02:22:00;1.10;;;1.00;;
8488;SDS011;4281;45.772;12.852;2024-03-08T02:24:31;1.60;;;1.50;;
8488;SDS011;4281;45.772;12.852;2024-03-08T02:26:59;1.20;;;1.10;;
8488;SDS011;4281;45.772;12.852;2024-03-08T02:29:27;1.13;;;1.03;;
8488;SDS011;4281;45.772;12.852;2024-03-08T02:31:56;1.43;;;1.33;;
8488;SDS011;4281;45.772;12.852;2024-03-08T02:34:24;1.40;;;1.30;;
8488;SDS011;4281;45.772;12.852;2024-03-08T02:36:52;1.17;;;1.10;;
8488;SDS011;4281;45.772;12.852;2024-03-08T02:39:21;1.30;;;1.20;;
8488;SDS011;4281;45.772;12.852;2024-03-08T02:41:49;1.27;;;1.17;;
8488;SDS011;4281;45.772;12.852;2024-03-08T02:44:17;0.97;;;0.97;;
8488;SDS011;4281;45.772;12.852;2024-03-08T02:46:48;1.70;;;1.30;;
8488;SDS011;4281;45.772;12.852;2024-03-08T02:49:17;1.20;;;1.10;;
8488;SDS011;4281;45.772;12.852;2024-03-08T02:51:45;1.30;;;1.20;;
8488;SDS011;4281;45.772;12.852;2024-03-08T02:54:13;1.03;;;1.03;;
8488;SDS011;4281;45.772;12.852;2024-03-08T02:56:42;1.20;;;1.10;;
8488;SDS011;4281;45.772;12.852;2024-03-08T02:59:10;1.23;;;1.13;;
8488;SDS011;4281;45.772;12.852;2024-03-08T03:01:39;0.90;;;0.90;;
8488;SDS011;4281;45.772;12.852;2024-03-08T03:04:07;1.27;;;1.17;;
8488;SDS011;4281;45.772;12.852;2024-03-08T03:06:35;1.13;;;1.10;;
8488;SDS011;4281;45.772;12.852;2024-03-08T03:09:03;1.40;;;1.30;;
8488;SDS011;4281;45.772;12.852;2024-03-08T03:11:32;1.40;;;1.30;;
8488;SDS011;4281;45.772;12.852;2024-03-08T03:14:02;1.00;;;0.90;;
8488;SDS011;4281;45.772;12.852;2024-03-08T03:16:30;1.20;;;1.10;;
8488;SDS011;4281;45.772;12.852;2024-03-08T03:18:58;1.30;;;1.20;;
8488;SDS011;4281;45.772;12.852;2024-03-08T03:21:28;0.90;;;0.90;;
8488;SDS011;4281;45.772;12.852;2024-03-08T03:23:58;1.30;;;1.20;;
8488;SDS011;4281;45.772;12.852;2024-03-08T03:26:26;1.13;;;1.03;;
8488;SDS011;4281;45.772;12.852;2024-03-08T03:28:54;1.20;;;1.10;;
8488;SDS011;4281;45.772;12.852;2024-03-08T03:31:25;1.03;;;1.00;;
8488;SDS011;4281;45.772;12.852;2024-03-08T03:33:53;1.30;;;1.00;;
8488;SDS011;4281;45.772;12.852;2024-03-08T03:36:22;1.20;;;1.10;;
8488;SDS011;4281;45.772;12.852;2024-03-08T03:38:51;1.30;;;1.20;;
8488;SDS011;4281;45.772;12.852;2024-03-08T03:41:30;1.00;;;0.90;;
8488;SDS011;4281;45.772;12.852;2024-03-08T03:43:59;1.20;;;1.10;;
8488;SDS011;4281;45.772;12.852;2024-03-08T03:46:28;1.13;;;1.03;;
8488;SDS011;4281;45.772;12.852;2024-03-08T03:48:56;1.60;;;1.20;;
8488;SDS011;4281;45.772;12.852;2024-03-08T03:51:24;1.00;;;1.00;;
8488;SDS011;4281;45.772;12.852;2024-03-08T03:53:53;1.20;;;1.10;;
8488;SDS011;4281;45.772;12.852;2024-03-08T03:56:27;1.30;;;1.20;;
8488;SDS011;4281;45.772;12.852;2024-03-08T03:58:55;1.50;;;1.07;;
8488;SDS011;4281;45.772;12.852;2024-03-08T04:01:23;1.20;;;1.10;;
8488;SDS011;4281;45.772;12.852;2024-03-08T04:03:53;1.20;;;1.10;;
8488;SDS011;4281;45.772;12.852;2024-03-08T04:06:21;1.50;;;1.33;;
8488;SDS011;4281;45.772;12.852;2024-03-08T04:08:50;1.30;;;1.20;;
8488;SDS011;4281;45.772;12.852;2024-03-08T04:11:18;1.30;;;1.20;;
8488;SDS011;4281;45.772;12.852;2024-03-08T04:13:47;1.20;;;1.10;;
8488;SDS011;4281;45.772;12.852;2024-03-08T04:16:15;1.13;;;1.10;;
8488;SDS011;4281;45.772;12.852;2024-03-08T04:18:44;1.23;;;1.13;;
8488;SDS011;4281;45.772;12.852;2024-03-08T04:21:14;1.40;;;1.30;;
8488;SDS011;4281;45.772;12.852;2024-03-08T04:23:42;1.23;;;1.13;;
8488;SDS011;4281;45.772;12.852;2024-03-08T04:26:11;1.33;;;1.23;;
8488;SDS011;4281;45.772;12.852;2024-03-08T04:28:43;1.40;;;1.30;;
8488;SDS011;4281;45.772;12.852;2024-03-08T04:31:11;1.30;;;1.20;;
8488;SDS011;4281;45.772;12.852;2024-03-08T04:33:39;1.40;;;1.30;;
8488;SDS011;4281;45.772;12.852;2024-03-08T04:36:07;1.40;;;1.30;;
8488;SDS011;4281;45.772;12.852;2024-03-08T04:38:41;1.60;;;1.50;;
8488;SDS011;4281;45.772;12.852;2024-03-08T04:41:09;1.40;;;1.30;;
8488;SDS011;4281;45.772;12.852;2024-03-08T04:43:38;1.30;;;1.20;;
8488;SDS011;4281;45.772;12.852;2024-03-08T04:46:06;1.57;;;1.47;;
8488;SDS011;4281;45.772;12.852;2024-03-08T04:48:34;1.40;;;1.30;;
8488;SDS011;4281;45.772;12.852;2024-03-08T04:51:03;1.53;;;1.43;;
8488;SDS011;4281;45.772;12.852;2024-03-08T04:53:32;1.70;;;1.60;;
8488;SDS011;4281;45.772;12.852;2024-03-08T04:56:02;1.80;;;1.70;;
8488;SDS011;4281;45.772;12.852;2024-03-08T04:58:32;1.80;;;1.70;;
8488;SDS011;4281;45.772;12.852;2024-03-08T05:01:01;1.70;;;1.60;;
8488;SDS011;4281;45.772;12.852;2024-03-08T05:03:29;2.40;;;2.20;;
8488;SDS011;4281;45.772;12.852;2024-03-08T05:05:57;2.23;;;2.03;;
8488;SDS011;4281;45.772;12.852;2024-03-08T05:08:25;2.27;;;2.07;;
8488;SDS011;4281;45.772;12.852;2024-03-08T05:10:53;2.13;;;1.93;;
8488;SDS011;4281;45.772;12.852;2024-03-08T05:13:23;2.37;;;2.17;;
8488;SDS011;4281;45.772;12.852;2024-03-08T05:15:51;1.87;;;1.77;;
8488;SDS011;4281;45.772;12.852;2024-03-08T05:18:20;1.73;;;1.63;;
8488;SDS011;4281;45.772;12.852;2024-03-08T05:20:48;2.00;;;1.80;;
8488;SDS011;4281;45.772;12.852;2024-03-08T05:23:17;2.33;;;2.07;;
8488;SDS011;4281;45.772;12.852;2024-03-08T05:25:47;2.20;;;2.00;;
8488;SDS011;4281;45.772;12.852;2024-03-08T05:28:15;2.10;;;2.00;;
8488;SDS011;4281;45.772;12.852;2024-03-08T05:30:44;2.07;;;1.87;;
8488;SDS011;4281;45.772;12.852;2024-03-08T05:33:12;2.40;;;2.20;;
8488;SDS011;4281;45.772;12.852;2024-03-08T05:35:41;2.50;;;2.30;;
8488;SDS011;4281;45.772;12.852;2024-03-08T05:38:09;2.70;;;2.50;;
8488;SDS011;4281;45.772;12.852;2024-03-08T05:40:39;2.33;;;2.13;;
8488;SDS011;4281;45.772;12.852;2024-03-08T05:43:09;2.50;;;2.13;;
8488;SDS011;4281;45.772;12.852;2024-03-08T05:45:38;2.27;;;2.10;;
8488;SDS011;4281;45.772;12.852;2024-03-08T05:48:08;2.60;;;2.40;;
8488;SDS011;4281;45.772;12.852;2024-03-08T05:50:36;2.50;;;2.30;;
8488;SDS011;4281;45.772;12.852;2024-03-08T05:53:04;2.67;;;2.47;;
8488;SDS011;4281;45.772;12.852;2024-03-08T05:55:33;2.40;;;2.20;;
8488;SDS011;4281;45.772;12.852;2024-03-08T05:58:02;2.60;;;2.40;;
8488;SDS011;4281;45.772;12.852;2024-03-08T06:00:30;4.50;;;2.80;;
8488;SDS011;4281;45.772;12.852;2024-03-08T06:02:58;2.90;;;2.60;;
8488;SDS011;4281;45.772;12.852;2024-03-08T06:05:28;2.87;;;2.67;;
8488;SDS011;4281;45.772;12.852;2024-03-08T06:07:56;3.03;;;2.73;;
8488;SDS011;4281;45.772;12.852;2024-03-08T06:10:24;3.10;;;2.90;;
8488;SDS011;4281;45.772;12.852;2024-03-08T06:12:52;2.80;;;2.60;;
8488;SDS011;4281;45.772;12.852;2024-03-08T06:15:21;3.00;;;2.80;;
8488;SDS011;4281;45.772;12.852;2024-03-08T06:17:49;3.30;;;3.00;;
8488;SDS011;4281;45.772;12.852;2024-03-08T06:20:19;3.27;;;2.97;;
8488;SDS011;4281;45.772;12.852;2024-03-08T06:22:54;3.97;;;2.70;;
8488;SDS011;4281;45.772;12.852;2024-03-08T06:25:22;3.50;;;3.20;;
8488;SDS011;4281;45.772;12.852;2024-03-08T06:27:50;2.93;;;2.73;;
8488;SDS011;4281;45.772;12.852;2024-03-08T06:30:19;3.17;;;2.87;;
8488;SDS011;4281;45.772;12.852;2024-03-08T06:32:48;3.30;;;3.00;;
8488;SDS011;4281;45.772;12.852;2024-03-08T06:35:17;3.30;;;3.00;;
8488;SDS011;4281;45.772;12.852;2024-03-08T06:37:46;3.50;;;3.20;;
8488;SDS011;4281;45.772;12.852;2024-03-08T06:40:16;3.67;;;3.37;;
8488;SDS011;4281;45.772;12.852;2024-03-08T06:42:44;3.50;;;3.20;;
8488;SDS011;4281;45.772;12.852;2024-03-08T06:45:13;3.47;;;3.00;;
8488;SDS011;4281;45.772;12.852;2024-03-08T06:47:45;3.40;;;3.10;;
8488;SDS011;4281;45.772;12.852;2024-03-08T06:50:14;3.83;;;3.53;;
8488;SDS011;4281;45.772;12.852;2024-03-08T06:52:42;3.30;;;3.00;;
8488;SDS011;4281;45.772;12.852;2024-03-08T06:55:10;3.67;;;3.37;;
8488;SDS011;4281;45.772;12.852;2024-03-08T06:57:40;3.50;;;3.20;;
8488;SDS011;4281;45.772;12.852;2024-03-08T07:00:09;4.37;;;3.97;;
8488;SDS011;4281;45.772;12.852;2024-03-08T07:02:40;3.80;;;3.43;;
8488;SDS011;4281;45.772;12.852;2024-03-08T07:05:08;3.80;;;3.50;;
8488;SDS011;4281;45.772;12.852;2024-03-08T07:07:37;3.63;;;3.33;;
8488;SDS011;4281;45.772;12.852;2024-03-08T07:10:08;3.77;;;3.47;;
8488;SDS011;4281;45.772;12.852;2024-03-08T07:12:37;4.00;;;3.60;;
8488;SDS011;4281;45.772;12.852;2024-03-08T07:15:07;3.50;;;3.20;;
8488;SDS011;4281;45.772;12.852;2024-03-08T07:17:39;4.07;;;3.67;;
8488;SDS011;4281;45.772;12.852;2024-03-08T07:20:11;4.13;;;3.73;;
8488;SDS011;4281;45.772;12.852;2024-03-08T07:22:40;4.47;;;4.03;;
8488;SDS011;4281;45.772;12.852;2024-03-08T07:25:11;4.30;;;3.90;;
8488;SDS011;4281;45.772;12.852;2024-03-08T07:27:48;4.80;;;4.40;;
8488;SDS011;4281;45.772;12.852;2024-03-08T07:30:21;4.93;;;4.40;;
8488;SDS011;4281;45.772;12.852;2024-03-08T07:33:09;4.40;;;4.00;;
8488;SDS011;4281;45.772;12.852;2024-03-08T07:35:38;4.70;;;4.30;;
8488;SDS011;4281;45.772;12.852;2024-03-08T07:38:07;4.40;;;3.87;;
8488;SDS011;4281;45.772;12.852;2024-03-08T07:40:36;5.30;;;4.80;;
8488;SDS011;4281;45.772;12.852;2024-03-08T07:43:07;5.40;;;4.90;;
8488;SDS011;4281;45.772;12.852;2024-03-08T07:45:36;5.37;;;4.87;;
8488;SDS011;4281;45.772;12.852;2024-03-08T07:48:05;5.57;;;5.07;;
8488;SDS011;4281;45.772;12.852;2024-03-08T07:50:36;5.80;;;5.30;;
8488;SDS011;4281;45.772;12.852;2024-03-08T07:53:06;5.80;;;5.30;;
8488;SDS011;4281;45.772;12.852;2024-03-08T07:55:34;6.20;;;5.60;;
8488;SDS011;4281;45.772;12.852;2024-03-08T07:58:03;5.23;;;4.73;;
8488;SDS011;4281;45.772;12.852;2024-03-08T08:00:31;5.90;;;5.40;;
8488;SDS011;4281;45.772;12.852;2024-03-08T08:03:00;5.80;;;5.30;;
8488;SDS011;4281;45.772;12.852;2024-03-08T08:05:28;5.83;;;5.33;;
8488;SDS011;4281;45.772;12.852;2024-03-08T08:08:00;5.93;;;5.33;;
8488;SDS011;4281;45.772;12.852;2024-03-08T08:10:29;5.30;;;4.80;;
8488;SDS011;4281;45.772;12.852;2024-03-08T08:12:59;5.63;;;5.13;;
8488;SDS011;4281;45.772;12.852;2024-03-08T08:15:29;5.47;;;4.97;;
8488;SDS011;4281;45.772;12.852;2024-03-08T08:17:57;5.23;;;4.73;;
8488;SDS011;4281;45.772;12.852;2024-03-08T08:20:26;6.10;;;5.43;;
8488;SDS011;4281;45.772;12.852;2024-03-08T08:22:55;5.77;;;5.27;;
8488;SDS011;4281;45.772;12.852;2024-03-08T08:25:25;6.53;;;5.90;;
8488;SDS011;4281;45.772;12.852;2024-03-08T08:27:53;6.77;;;5.93;;
8488;SDS011;4281;45.772;12.852;2024-03-08T08:30:21;6.40;;;5.80;;
8488;SDS011;4281;45.772;12.852;2024-03-08T08:32:49;6.27;;;5.63;;
8488;SDS011;4281;45.772;12.852;2024-03-08T08:35:17;6.57;;;5.97;;
8488;SDS011;4281;45.772;12.852;2024-03-08T08:37:47;6.87;;;5.20;;
8488;SDS011;4281;45.772;12.852;2024-03-08T08:40:16;6.43;;;5.67;;
8488;SDS011;4281;45.772;12.852;2024-03-08T08:42:45;6.77;;;6.17;;
8488;SDS011;4281;45.772;12.852;2024-03-08T08:45:15;7.07;;;6.03;;
8488;SDS011;4281;45.772;12.852;2024-03-08T08:47:50;8.20;;;7.17;;
8488;SDS011;4281;45.772;12.852;2024-03-08T08:50:19;8.07;;;7.27;;
8488;SDS011;4281;45.772;12.852;2024-03-08T08:52:51;8.73;;;7.83;;
8488;SDS011;4281;45.772;12.852;2024-03-08T08:55:20;7.40;;;6.70;;
8488;SDS011;4281;45.772;12.852;2024-03-08T08:57:52;7.57;;;6.87;;
8488;SDS011;4281;45.772;12.852;2024-03-08T09:00:20;7.97;;;7.17;;
8488;SDS011;4281;45.772;12.852;2024-03-08T09:02:53;8.37;;;7.47;;
8488;SDS011;4281;45.772;12.852;2024-03-08T09:05:25;8.10;;;7.30;;
8488;SDS011;4281;45.772;12.852;2024-03-08T09:07:54;8.00;;;7.20;;
8488;SDS011;4281;45.772;12.852;2024-03-08T09:10:23;8.77;;;7.87;;
8488;SDS011;4281;45.772;12.852;2024-03-08T09:12:56;8.37;;;7.57;;
8488;SDS011;4281;45.772;12.852;2024-03-08T09:15:26;8.27;;;7.47;;
8488;SDS011;4281;45.772;12.852;2024-03-08T09:17:55;8.43;;;7.63;;
8488;SDS011;4281;45.772;12.852;2024-03-08T09:20:24;10.07;;;8.33;;
8488;SDS011;4281;45.772;12.852;2024-03-08T09:22:51;9.57;;;8.67;;
8488;SDS011;4281;45.772;12.852;2024-03-08T09:25:21;10.13;;;8.47;;
8488;SDS011;4281;45.772;12.852;2024-03-08T09:27:49;8.90;;;8.00;;
8488;SDS011;4281;45.772;12.852;2024-03-08T09:30:17;9.77;;;8.77;;
8488;SDS011;4281;45.772;12.852;2024-03-08T09:32:46;9.63;;;8.63;;
8488;SDS011;4281;45.772;12.852;2024-03-08T09:35:14;8.20;;;7.40;;
8488;SDS011;4281;45.772;12.852;2024-03-08T09:37:42;8.63;;;7.83;;
8488;SDS011;4281;45.772;12.852;2024-03-08T09:40:10;10.23;;;9.13;;
8488;SDS011;4281;45.772;12.852;2024-03-08T09:42:43;9.07;;;8.20;;
8488;SDS011;4281;45.772;12.852;2024-03-08T09:45:11;8.90;;;8.03;;
8488;SDS011;4281;45.772;12.852;2024-03-08T09:47:42;9.07;;;8.17;;
8488;SDS011;4281;45.772;12.852;2024-03-08T09:50:11;8.43;;;7.63;;
8488;SDS011;4281;45.772;12.852;2024-03-08T09:52:40;8.67;;;7.70;;
8488;SDS011;4281;45.772;12.852;2024-03-08T09:55:10;9.43;;;8.53;;
8488;SDS011;4281;45.772;12.852;2024-03-08T09:57:39;9.77;;;8.77;;
8488;SDS011;4281;45.772;12.852;2024-03-08T10:00:10;9.20;;;8.30;;
8488;SDS011;4281;45.772;12.852;2024-03-08T10:02:50;10.23;;;9.23;;
8488;SDS011;4281;45.772;12.852;2024-03-08T10:05:20;9.77;;;8.60;;
8488;SDS011;4281;45.772;12.852;2024-03-08T10:07:49;9.87;;;8.60;;
8488;SDS011;4281;45.772;12.852;2024-03-08T10:10:17;10.33;;;9.33;;
8488;SDS011;4281;45.772;12.852;2024-03-08T10:12:45;10.03;;;9.03;;
8488;SDS011;4281;45.772;12.852;2024-03-08T10:15:15;10.67;;;9.67;;
8488;SDS011;4281;45.772;12.852;2024-03-08T10:17:44;9.83;;;8.83;;
8488;SDS011;4281;45.772;12.852;2024-03-08T10:20:15;9.90;;;8.90;;
8488;SDS011;4281;45.772;12.852;2024-03-08T10:22:44;9.87;;;8.87;;
8488;SDS011;4281;45.772;12.852;2024-03-08T10:25:32;9.67;;;8.60;;
8488;SDS011;4281;45.772;12.852;2024-03-08T10:28:02;9.70;;;8.70;;
8488;SDS011;4281;45.772;12.852;2024-03-08T10:30:32;9.57;;;8.23;;
8488;SDS011;4281;45.772;12.852;2024-03-08T10:33:00;10.07;;;9.07;;
8488;SDS011;4281;45.772;12.852;2024-03-08T10:35:31;8.80;;;7.90;;
8488;SDS011;4281;45.772;12.852;2024-03-08T10:37:59;8.87;;;7.97;;
8488;SDS011;4281;45.772;12.852;2024-03-08T10:40:30;8.87;;;7.97;;
8488;SDS011;4281;45.772;12.852;2024-03-08T10:42:59;9.70;;;8.70;;
8488;SDS011;4281;45.772;12.852;2024-03-08T10:45:33;9.83;;;8.93;;
8488;SDS011;4281;45.772;12.852;2024-03-08T10:48:11;10.00;;;9.00;;
8488;SDS011;4281;45.772;12.852;2024-03-08T10:50:49;9.77;;;8.73;;
8488;SDS011;4281;45.772;12.852;2024-03-08T10:53:19;8.90;;;8.00;;
8488;SDS011;4281;45.772;12.852;2024-03-08T10:55:48;9.10;;;8.20;;
8488;SDS011;4281;45.772;12.852;2024-03-08T10:58:20;9.17;;;8.27;;
8488;SDS011;4281;45.772;12.852;2024-03-08T11:00:50;9.97;;;8.97;;
8488;SDS011;4281;45.772;12.852;2024-03-08T11:06:29;9.13;;;8.23;;
8488;SDS011;4281;45.772;12.852;2024-03-08T11:08:57;9.53;;;8.63;;
8488;SDS011;4281;45.772;12.852;2024-03-08T11:11:25;9.20;;;8.30;;
8488;SDS011;4281;45.772;12.852;2024-03-08T11:14:00;8.63;;;7.83;;
8488;SDS011;4281;45.772;12.852;2024-03-08T11:16:40;9.13;;;8.23;;
8488;SDS011;4281;45.772;12.852;2024-03-08T11:19:24;10.20;;;9.20;;
8488;SDS011;4281;45.772;12.852;2024-03-08T11:21:59;12.27;;;9.63;;
8488;SDS011;4281;45.772;12.852;2024-03-08T11:24:27;10.60;;;9.50;;
8488;SDS011;4281;45.772;12.852;2024-03-08T11:26:56;10.67;;;9.57;;
8488;SDS011;4281;45.772;12.852;2024-03-08T11:29:32;9.57;;;8.57;;
8488;SDS011;4281;45.772;12.852;2024-03-08T11:32:08;9.53;;;8.53;;
8488;SDS011;4281;45.772;12.852;2024-03-08T11:34:37;9.10;;;8.20;;
8488;SDS011;4281;45.772;12.852;2024-03-08T11:37:10;9.57;;;8.00;;
8488;SDS011;4281;45.772;12.852;2024-03-08T11:39:39;9.37;;;7.60;;
8488;SDS011;4281;45.772;12.852;2024-03-08T11:42:07;8.77;;;7.93;;
8488;SDS011;4281;45.772;12.852;2024-03-08T11:44:37;8.13;;;7.33;;
8488;SDS011;4281;45.772;12.852;2024-03-08T11:47:11;8.10;;;7.30;;
8488;SDS011;4281;45.772;12.852;2024-03-08T11:49:39;8.53;;;7.73;;
8488;SDS011;4281;45.772;12.852;2024-03-08T11:52:10;7.67;;;6.90;;
8488;SDS011;4281;45.772;12.852;2024-03-08T11:54:40;8.13;;;7.33;;
8488;SDS011;4281;45.772;12.852;2024-03-08T11:57:08;7.27;;;6.53;;
8488;SDS011;4281;45.772;12.852;2024-03-08T11:59:37;8.40;;;7.57;;
8488;SDS011;4281;45.772;12.852;2024-03-08T12:02:05;8.50;;;7.60;;
8488;SDS011;4281;45.772;12.852;2024-03-08T12:04:38;8.70;;;7.80;;
8488;SDS011;4281;45.772;12.852;2024-03-08T12:07:09;8.33;;;7.53;;
8488;SDS011;4281;45.772;12.852;2024-03-08T12:09:38;8.47;;;7.67;;
8488;SDS011;4281;45.772;12.852;2024-03-08T12:12:07;8.93;;;8.03;;
8488;SDS011;4281;45.772;12.852;2024-03-08T12:14:35;8.23;;;7.43;;
8488;SDS011;4281;45.772;12.852;2024-03-08T12:17:03;8.33;;;7.53;;
8488;SDS011;4281;45.772;12.852;2024-03-08T12:19:32;8.00;;;7.20;;
8488;SDS011;4281;45.772;12.852;2024-03-08T12:22:08;7.80;;;7.10;;
8488;SDS011;4281;45.772;12.852;2024-03-08T12:24:37;8.03;;;7.23;;
8488;SDS011;4281;45.772;12.852;2024-03-08T12:27:17;9.03;;;8.13;;
8488;SDS011;4281;45.772;12.852;2024-03-08T12:29:45;8.27;;;7.47;;
8488;SDS011;4281;45.772;12.852;2024-03-08T12:32:13;8.07;;;7.27;;
8488;SDS011;4281;45.772;12.852;2024-03-08T12:34:41;8.00;;;7.20;;
8488;SDS011;4281;45.772;12.852;2024-03-08T12:37:13;8.33;;;7.53;;
8488;SDS011;4281;45.772;12.852;2024-03-08T12:39:43;8.50;;;7.60;;
8488;SDS011;4281;45.772;12.852;2024-03-08T12:42:12;7.70;;;7.00;;
8488;SDS011;4281;45.772;12.852;2024-03-08T12:44:40;7.33;;;6.63;;
8488;SDS011;4281;45.772;12.852;2024-03-08T12:47:09;7.50;;;6.80;;
8488;SDS011;4281;45.772;12.852;2024-03-08T12:49:37;8.37;;;7.30;;
8488;SDS011;4281;45.772;12.852;2024-03-08T12:52:08;8.10;;;7.30;;
8488;SDS011;4281;45.772;12.852;2024-03-08T12:54:39;8.03;;;7.23;;
8488;SDS011;4281;45.772;12.852;2024-03-08T12:57:09;8.40;;;7.60;;
8488;SDS011;4281;45.772;12.852;2024-03-08T12:59:37;8.43;;;7.60;;
8488;SDS011;4281;45.772;12.852;2024-03-08T13:02:05;8.67;;;7.77;;
8488;SDS011;4281;45.772;12.852;2024-03-08T13:04:37;8.60;;;7.70;;
8488;SDS011;4281;45.772;12.852;2024-03-08T13:07:05;7.80;;;7.00;;
8488;SDS011;4281;45.772;12.852;2024-03-08T13:09:33;7.57;;;6.77;;
8488;SDS011;4281;45.772;12.852;2024-03-08T13:12:05;7.20;;;6.50;;
8488;SDS011;4281;45.772;12.852;2024-03-08T13:14:35;8.40;;;7.00;;
8488;SDS011;4281;45.772;12.852;2024-03-08T13:17:03;7.60;;;6.80;;
8488;SDS011;4281;45.772;12.852;2024-03-08T13:19:32;7.27;;;6.53;;
8488;SDS011;4281;45.772;12.852;2024-03-08T13:22:00;7.50;;;6.80;;
8488;SDS011;4281;45.772;12.852;2024-03-08T13:24:30;8.30;;;7.17;;
8488;SDS011;4281;45.772;12.852;2024-03-08T13:26:58;7.87;;;7.17;;
8488;SDS011;4281;45.772;12.852;2024-03-08T13:29:28;8.00;;;7.20;;
8488;SDS011;4281;45.772;12.852;2024-03-08T13:32:00;7.57;;;6.87;;
8488;SDS011;4281;45.772;12.852;2024-03-08T13:34:29;8.27;;;7.47;;
8488;SDS011;4281;45.772;12.852;2024-03-08T13:37:01;8.70;;;7.83;;
8488;SDS011;4281;45.772;12.852;2024-03-08T13:39:32;8.57;;;7.77;;
8488;SDS011;4281;45.772;12.852;2024-03-08T13:42:07;8.27;;;7.47;;
8488;SDS011;4281;45.772;12.852;2024-03-08T13:44:37;7.90;;;7.20;;
8488;SDS011;4281;45.772;12.852;2024-03-08T13:47:05;8.33;;;7.53;;
8488;SDS011;4281;45.772;12.852;2024-03-08T13:49:34;8.03;;;7.23;;
8488;SDS011;4281;45.772;12.852;2024-03-08T13:52:03;8.83;;;7.80;;
8488;SDS011;4281;45.772;12.852;2024-03-08T13:54:31;8.53;;;7.50;;
8488;SDS011;4281;45.772;12.852;2024-03-08T13:56:59;8.13;;;7.33;;
8488;SDS011;4281;45.772;12.852;2024-03-08T13:59:30;8.80;;;7.87;;
8488;SDS011;4281;45.772;12.852;2024-03-08T14:02:00;7.93;;;7.23;;
8488;SDS011;4281;45.772;12.852;2024-03-08T14:04:29;7.93;;;7.13;;
8488;SDS011;4281;45.772;12.852;2024-03-08T14:06:57;8.33;;;7.43;;
8488;SDS011;4281;45.772;12.852;2024-03-08T14:09:30;8.10;;;7.30;;
8488;SDS011;4281;45.772;12.852;2024-03-08T14:11:58;7.73;;;7.00;;
8488;SDS011;4281;45.772;12.852;2024-03-08T14:14:26;9.00;;;8.10;;
8488;SDS011;4281;45.772;12.852;2024-03-08T14:16:54;8.83;;;7.93;;
8488;SDS011;4281;45.772;12.852;2024-03-08T14:19:26;8.33;;;7.53;;
8488;SDS011;4281;45.772;12.852;2024-03-08T14:21:54;8.30;;;7.50;;
8488;SDS011;4281;45.772;12.852;2024-03-08T14:24:22;9.20;;;8.20;;
8488;SDS011;4281;45.772;12.852;2024-03-08T14:26:51;7.70;;;7.00;;
8488;SDS011;4281;45.772;12.852;2024-03-08T14:29:19;7.93;;;7.17;;
8488;SDS011;4281;45.772;12.852;2024-03-08T14:31:47;8.07;;;7.27;;
8488;SDS011;4281;45.772;12.852;2024-03-08T14:34:15;7.37;;;6.67;;
8488;SDS011;4281;45.772;12.852;2024-03-08T14:36:44;7.60;;;6.83;;
8488;SDS011;4281;45.772;12.852;2024-03-08T14:39:13;7.70;;;7.00;;
8488;SDS011;4281;45.772;12.852;2024-03-08T14:41:41;8.00;;;7.20;;
8488;SDS011;4281;45.772;12.852;2024-03-08T14:44:09;8.47;;;7.67;;
8488;SDS011;4281;45.772;12.852;2024-03-08T14:46:38;7.83;;;7.13;;
8488;SDS011;4281;45.772;12.852;2024-03-08T14:49:06;8.60;;;7.70;;
8488;SDS011;4281;45.772;12.852;2024-03-08T14:51:34;7.63;;;6.90;;
8488;SDS011;4281;45.772;12.852;2024-03-08T14:54:03;8.03;;;7.23;;
8488;SDS011;4281;45.772;12.852;2024-03-08T14:56:32;6.90;;;6.30;;
8488;SDS011;4281;45.772;12.852;2024-03-08T14:59:01;7.57;;;6.87;;
8488;SDS011;4281;45.772;12.852;2024-03-08T15:01:31;7.67;;;6.97;;
8488;SDS011;4281;45.772;12.852;2024-03-08T15:04:02;8.77;;;7.87;;
8488;SDS011;4281;45.772;12.852;2024-03-08T15:06:35;8.30;;;7.50;;
8488;SDS011;4281;45.772;12.852;2024-03-08T15:09:05;7.30;;;6.60;;
8488;SDS011;4281;45.772;12.852;2024-03-08T15:11:37;7.17;;;6.47;;
8488;SDS011;4281;45.772;12.852;2024-03-08T15:14:06;7.73;;;6.93;;
8488;SDS011;4281;45.772;12.852;2024-03-08T15:16:36;7.40;;;6.70;;